Time;durP1;ratioP1;P1;durP2;ratioP2;P2;SDS_P1;SDS_P2;PMS_P1;PMS_P2;Temp;Humidity;BMP_temperature;BMP_pressure;BME280_temperature;BME280_humidity;BME280_pressure;Samples;Min_cycle;Max_cycle;Signal;HPM_P1;HPM_P2
2022/09/26 00:05:02;;;;;;;7.40;6.70;;;;;14.30;98405.00;;;;16498084;28;20211;-47
2022/09/26 00:13:06;;;;;;;11.27;8.33;;;;;14.30;98398.00;;;;16501820;28;20195;-48
2022/09/26 00:21:11;;;;;;;12.30;9.20;;;;;14.40;98394.00;;;;16509946;28;20234;-48
2022/09/26 00:29:14;;;;;;;9.13;8.23;;;;;14.20;98399.00;;;;16519549;28;20233;-48
2022/09/26 00:37:17;;;;;;;10.37;9.20;;;;;14.30;98406.00;;;;16526378;28;20615;-48
2022/09/26 00:45:21;;;;;;;11.10;8.10;;;;;15.10;98384.00;;;;16510674;28;20595;-48
2022/09/26 00:53:27;;;;;;;9.73;8.53;;;;;15.30;98381.00;;;;16520541;28;20278;-48
2022/09/26 01:01:31;;;;;;;11.10;8.57;;;;;14.00;98391.00;;;;16503114;28;20230;-48
2022/09/26 01:09:33;;;;;;;10.90;8.60;;;;;13.40;98395.00;;;;16525444;22;20265;-76
2022/09/26 01:17:38;;;;;;;12.47;9.60;;;;;13.10;98392.00;;;;16458384;28;20227;-75
2022/09/26 01:26:04;;;;;;;9.53;8.63;;;;;13.40;98373.00;;;;16450106;28;20238;-75
2022/09/26 01:34:13;;;;;;;11.23;10.10;;;;;12.70;98390.00;;;;16444142;28;20757;-75
2022/09/26 01:42:20;;;;;;;11.70;10.27;;;;;12.40;98389.00;;;;16445383;28;20232;-75
2022/09/26 01:50:29;;;;;;;10.37;9.23;;;;;12.10;98396.00;;;;16451215;28;20216;-75
2022/09/26 01:58:35;;;;;;;11.97;10.03;;;;;12.00;98407.00;;;;16454524;28;20235;-75
2022/09/26 02:06:43;;;;;;;11.47;10.30;;;;;11.90;98411.00;;;;16451460;28;20235;-75
2022/09/26 02:14:47;;;;;;;12.20;11.00;;;;;12.00;98396.00;;;;16459573;28;20225;-75
2022/09/26 02:22:51;;;;;;;14.30;10.50;;;;;12.30;98382.00;;;;16455536;28;20272;-76
2022/09/26 02:30:54;;;;;;;12.77;10.47;;;;;12.40;98375.00;;;;16452503;28;20715;-74
2022/09/26 02:38:59;;;;;;;13.13;10.67;;;;;12.40;98362.00;;;;16453896;28;20723;-75
2022/09/26 02:47:21;;;;;;;11.70;10.13;;;;;12.40;98356.00;;;;16460450;28;20315;-75
2022/09/26 02:55:31;;;;;;;12.33;11.13;;;;;12.10;98351.00;;;;16451678;28;20252;-74
2022/09/26 03:03:37;;;;;;;12.20;10.90;;;;;12.10;98349.00;;;;16446933;28;20602;-74
2022/09/26 03:11:42;;;;;;;12.40;11.20;;;;;12.30;98336.00;;;;16452567;28;20599;-74
2022/09/26 03:19:47;;;;;;;12.30;10.00;;;;;12.80;98309.00;;;;16446439;28;20220;-74
2022/09/26 03:27:51;;;;;;;14.53;10.37;;;;;12.50;98309.00;;;;16449114;28;20233;-74
2022/09/26 03:35:54;;;;;;;10.70;9.70;;;;;12.40;98300.00;;;;16455822;28;20733;-75
2022/09/26 03:43:59;;;;;;;12.23;10.60;;;;;12.60;98294.00;;;;16454235;28;20223;-76
2022/09/26 03:52:11;;;;;;;9.20;8.33;;;;;12.50;98291.00;;;;16466296;28;20619;-74
2022/09/26 04:00:16;;;;;;;11.47;10.30;;;;;12.70;98282.00;;;;16485692;28;20226;-77
2022/09/26 04:08:18;;;;;;;15.80;10.53;;;;;12.90;98260.00;;;;16467271;28;20210;-75
2022/09/26 04:16:23;;;;;;;10.87;9.77;;;;;12.40;98262.00;;;;16484327;28;20233;-75
2022/09/26 04:24:31;;;;;;;9.90;8.73;;;;;13.20;98241.00;;;;16476591;28;20313;-73
2022/09/26 04:32:35;;;;;;;9.93;9.03;;;;;12.90;98233.00;;;;16461519;28;20221;-76
2022/09/26 04:41:12;;;;;;;9.10;8.40;;;;;13.00;98222.00;;;;16441457;28;20226;-76
2022/09/26 04:49:16;;;;;;;8.17;7.33;;;;;12.90;98228.00;;;;16461184;28;20204;-74
2022/09/26 04:57:18;;;;;;;12.10;10.80;;;;;13.20;98209.00;;;;16469251;28;20221;-74
2022/09/26 05:05:23;;;;;;;8.83;7.90;;;;;12.30;98214.00;;;;16467507;28;20332;-74
2022/09/26 05:13:26;;;;;;;9.60;8.60;;;;;12.80;98217.00;;;;16437379;28;20736;-74
2022/09/26 05:21:30;;;;;;;9.60;8.60;;;;;12.70;98218.00;;;;16479969;28;20241;-74
2022/09/26 05:29:32;;;;;;;9.20;8.40;;;;;12.10;98214.00;;;;16466249;28;20211;-74
2022/09/26 05:37:40;;;;;;;10.17;9.20;;;;;12.30;98223.00;;;;16457772;28;20280;-74
2022/09/26 05:45:49;;;;;;;14.50;9.67;;;;;12.70;98209.00;;;;16452031;28;20228;-76
2022/09/26 05:53:57;;;;;;;11.37;10.13;;;;;13.10;98201.00;;;;16477243;23;20235;-48
2022/09/26 06:02:04;;;;;;;15.30;13.90;;;;;13.60;98178.00;;;;16450866;28;20227;-48
2022/09/26 06:10:26;;;;;;;15.33;12.13;;;;;13.80;98184.00;;;;16435475;28;20223;-48
2022/09/26 06:18:29;;;;;;;14.30;12.80;;;;;14.00;98186.00;;;;16420558;28;20272;-48
2022/09/26 06:26:33;;;;;;;13.70;12.37;;;;;14.30;98171.00;;;;16438873;28;20314;-48
2022/09/26 06:34:37;;;;;;;12.43;11.07;;;;;15.00;98156.00;;;;16433126;28;20406;-48
2022/09/26 06:43:00;;;;;;;11.00;9.90;;;;;14.90;98144.00;;;;16430352;28;20225;-46
2022/09/26 06:51:21;;;;;;;9.47;8.50;;;;;15.70;98143.00;;;;16425995;28;20590;-43
2022/09/26 06:59:25;;;;;;;8.90;8.00;;;;;16.50;98131.00;;;;16432872;28;20240;-44
2022/09/26 07:07:44;;;;;;;14.27;10.00;;;;;15.40;98132.00;;;;16425244;28;20235;-47
2022/09/26 07:15:57;;;;;;;11.20;10.00;;;;;15.70;98131.00;;;;16426340;28;20220;-48
2022/09/26 07:24:22;;;;;;;10.13;9.23;;;;;15.90;98137.00;;;;16409735;28;20307;-47
2022/09/26 07:32:26;;;;;;;8.30;7.23;;;;;16.00;98127.00;;;;16440993;28;20363;-46
2022/09/26 07:40:53;;;;;;;5.53;4.93;;;;;15.90;98115.00;;;;16429988;28;20257;-48
2022/09/26 07:57:45;;;;;;;3.33;3.10;;;;;16.50;98112.00;;;;16445855;28;20225;-47
2022/09/26 08:06:01;;;;;;;4.00;3.60;;;;;16.20;98099.00;;;;16438238;28;20229;-48
2022/09/26 08:14:04;;;;;;;3.30;3.00;;;;;16.60;98085.00;;;;16424426;28;20698;-47
2022/09/26 08:22:15;;;;;;;4.13;3.20;;;;;16.90;98083.00;;;;16423469;28;20768;-48
2022/09/26 08:30:18;;;;;;;3.47;3.10;;;;;17.70;98066.00;;;;16411237;28;20221;-47
2022/09/26 08:38:24;;;;;;;3.03;2.83;;;;;17.50;98067.00;;;;16427758;28;20240;-47
2022/09/26 08:46:57;;;;;;;4.90;2.53;;;;;18.50;98054.00;;;;16412240;28;20312;-47
2022/09/26 08:55:21;;;;;;;3.20;3.00;;;;;17.10;98060.00;;;;16454056;28;20228;-47
2022/09/26 09:03:28;;;;;;;6.50;4.03;;;;;17.30;98062.00;;;;16439530;28;20214;-47
2022/09/26 09:11:46;;;;;;;4.83;4.37;;;;;17.60;98058.00;;;;16440445;28;20251;-47
2022/09/26 09:19:56;;;;;;;4.00;3.30;;;;;17.70;98049.00;;;;16450636;28;20674;-47
2022/09/26 09:28:31;;;;;;;3.37;3.03;;;;;18.00;98042.00;;;;16456354;28;20255;-47
2022/09/26 09:36:40;;;;;;;3.70;2.63;;;;;18.40;98028.00;;;;16416330;28;20220;-47
2022/09/26 09:45:06;;;;;;;2.53;2.33;;;;;18.70;98025.00;;;;16429844;28;20224;-47
2022/09/26 09:53:21;;;;;;;3.27;2.60;;;;;18.80;97997.00;;;;16437262;28;20207;-47
2022/09/26 10:01:28;;;;;;;3.27;2.30;;;;;18.90;98000.00;;;;16419005;28;20231;-47
2022/09/26 10:09:38;;;;;;;2.93;1.97;;;;;20.10;97979.00;;;;16419933;28;20244;-47
2022/09/26 10:18:15;;;;;;;2.80;1.87;;;;;21.00;97946.00;;;;16735213;28;20705;-47
2022/09/26 10:26:25;;;;;;;2.03;1.80;;;;;19.60;97962.00;;;;16650004;28;20230;-47
2022/09/26 10:34:33;;;;;;;3.17;2.00;;;;;19.40;97967.00;;;;16648279;28;20222;-47
2022/09/26 10:42:37;;;;;;;2.07;1.90;;;;;21.40;97946.00;;;;16650223;28;20202;-47
2022/09/26 10:50:49;;;;;;;2.27;1.57;;;;;21.30;97935.00;;;;16653200;28;20702;-47
2022/09/26 10:59:14;;;;;;;1.90;1.70;;;;;21.10;97922.00;;;;16648828;28;20230;-48
2022/09/26 11:07:23;;;;;;;3.70;1.60;;;;;19.90;97922.00;;;;16654778;28;20226;-47
2022/09/26 11:15:41;;;;;;;2.93;1.33;;;;;20.40;97904.00;;;;16653976;28;20731;-46
2022/09/26 11:23:50;;;;;;;1.40;1.30;;;;;19.40;97899.00;;;;16653401;28;20694;-47
2022/09/26 11:31:54;;;;;;;3.63;1.77;;;;;20.50;97886.00;;;;16611968;28;20227;-46
2022/09/26 11:40:18;;;;;;;2.23;1.60;;;;;20.50;97876.00;;;;16617464;28;20223;-47
2022/09/26 11:48:30;;;;;;;1.47;0.93;;;;;19.90;97890.00;;;;16620067;28;20354;-48
2022/09/26 11:57:11;;;;;;;1.73;0.70;;;;;20.80;97881.00;;;;16614256;28;20357;-48
2022/09/26 12:05:24;;;;;;;1.63;1.20;;;;;20.50;97859.00;;;;16611908;28;20233;-47
2022/09/26 12:13:34;;;;;;;1.23;1.07;;;;;19.90;97861.00;;;;16616180;28;20227;-47
2022/09/26 12:22:27;;;;;;;3.20;1.40;;;;;18.50;97848.00;;;;16612349;28;20212;-47
2022/09/26 12:30:13;;;;;;;1.40;1.03;;;;;18.70;97822.00;;;;16602475;28;20274;-47
2022/09/26 12:38:32;;;;;;;2.27;1.37;;;;;22.00;97785.00;;;;16600172;28;20261;-48
2022/09/26 12:46:49;;;;;;;1.77;1.40;;;;;20.30;97794.00;;;;16598817;28;20226;-47
2022/09/26 12:55:12;;;;;;;1.93;1.50;;;;;20.90;97797.00;;;;16608800;28;20223;-47
2022/09/26 13:03:48;;;;;;;0.87;0.80;;;;;19.20;97788.00;;;;16605760;28;20210;-47
2022/09/26 13:11:58;;;;;;;0.90;0.80;;;;;19.20;97803.00;;;;16593466;28;20223;-47
2022/09/26 13:20:05;;;;;;;2.50;1.17;;;;;18.00;97808.00;;;;16595401;28;20344;-47
2022/09/26 13:28:12;;;;;;;0.70;0.70;;;;;18.60;97801.00;;;;16598998;28;20257;-47
2022/09/26 13:36:19;;;;;;;1.70;0.83;;;;;19.10;97783.00;;;;16590636;28;20227;-47
2022/09/26 13:44:29;;;;;;;1.77;0.97;;;;;19.40;97759.00;;;;16592124;28;20207;-47
2022/09/26 13:52:42;;;;;;;1.90;0.80;;;;;22.10;97737.00;;;;16592582;28;20230;-47
2022/09/26 14:00:51;;;;;;;0.70;0.70;;;;;21.90;97733.00;;;;16601782;28;20203;-48
2022/09/26 14:09:23;;;;;;;0.70;0.70;;;;;21.10;97716.00;;;;16597606;28;20735;-48
2022/09/26 14:18:02;;;;;;;7.90;1.37;;;;;20.70;97710.00;;;;16605287;28;20991;-48
2022/09/26 14:26:11;;;;;;;1.60;0.73;;;;;20.70;97711.00;;;;16612085;28;20700;-48
2022/09/26 14:34:22;;;;;;;1.07;0.83;;;;;19.90;97709.00;;;;16606143;28;20310;-48
2022/09/26 14:42:28;;;;;;;1.37;0.87;;;;;19.20;97713.00;;;;16614362;28;20207;-48
2022/09/26 14:50:34;;;;;;;1.80;0.97;;;;;18.30;97710.00;;;;16605246;28;20235;-48
2022/09/26 14:58:49;;;;;;;1.90;1.00;;;;;18.70;97705.00;;;;16616976;28;20608;-48
2022/09/26 15:06:55;;;;;;;1.87;1.17;;;;;18.00;97711.00;;;;16621350;28;20703;-47
2022/09/26 15:15:07;;;;;;;1.23;1.10;;;;;18.20;97698.00;;;;16612566;28;20770;-47
2022/09/26 15:23:24;;;;;;;2.60;1.10;;;;;18.20;97694.00;;;;16613600;28;20739;-48
2022/09/26 15:31:35;;;;;;;1.53;0.83;;;;;19.30;97669.00;;;;16600355;28;20223;-49
2022/09/26 15:39:40;;;;;;;0.70;0.60;;;;;19.00;97668.00;;;;16604163;28;20299;-48
2022/09/26 15:47:44;;;;;;;0.70;0.67;;;;;18.70;97662.00;;;;16606745;28;20229;-47
2022/09/26 15:55:51;;;;;;;1.43;0.93;;;;;18.00;97663.00;;;;16608133;28;20317;-47
2022/09/26 16:03:59;;;;;;;2.00;1.00;;;;;18.00;97659.00;;;;16616916;28;20194;-48
2022/09/26 16:12:03;;;;;;;1.90;1.17;;;;;18.00;97664.00;;;;16623364;28;20214;-49
2022/09/26 16:20:25;;;;;;;1.60;1.20;;;;;17.90;97636.00;;;;16629646;28;20732;-48
2022/09/26 16:28:43;;;;;;;2.00;1.37;;;;;17.60;97634.00;;;;16618513;28;20302;-47
2022/09/26 16:36:48;;;;;;;1.40;1.30;;;;;17.70;97630.00;;;;16611477;28;20224;-49
2022/09/26 16:44:53;;;;;;;1.13;1.00;;;;;17.40;97614.00;;;;16605239;28;20253;-48
2022/09/26 16:52:57;;;;;;;2.13;1.40;;;;;17.20;97611.00;;;;16608200;28;20580;-47
2022/09/26 17:09:22;;;;;;;1.70;1.17;;;;;17.20;97587.00;;;;16596381;28;20262;-48
2022/09/26 17:17:25;;;;;;;2.30;2.10;;;;;17.60;97576.00;;;;16599390;28;20300;-48
2022/09/26 17:25:30;;;;;;;5.60;1.90;;;;;17.50;97569.00;;;;16597584;28;20712;-47
2022/09/26 17:33:34;;;;;;;3.33;1.80;;;;;17.20;97569.00;;;;16593838;28;20763;-48
2022/09/26 17:41:38;;;;;;;4.27;2.57;;;;;17.30;97559.00;;;;16611679;28;20894;-48
2022/09/26 17:49:40;;;;;;;2.30;1.93;;;;;17.30;97552.00;;;;16606654;28;20241;-47
2022/09/26 17:57:44;;;;;;;2.90;1.50;;;;;16.90;97544.00;;;;16611441;28;20293;-48
2022/09/26 18:05:47;;;;;;;5.03;2.40;;;;;16.80;97533.00;;;;16593411;28;20225;-47
2022/09/26 18:13:54;;;;;;;3.83;2.10;;;;;16.70;97523.00;;;;16593546;28;20227;-47
2022/09/26 18:21:57;;;;;;;3.40;3.10;;;;;16.60;97495.00;;;;16595248;28;20232;-47
2022/09/26 18:30:01;;;;;;;3.30;3.00;;;;;16.60;97479.00;;;;16596748;28;20355;-48
2022/09/26 18:38:04;;;;;;;7.10;2.70;;;;;16.40;97473.00;;;;16605292;28;20233;-48
2022/09/26 18:46:10;;;;;;;2.93;2.73;;;;;16.60;97479.00;;;;16617880;28;20699;-48
2022/09/26 18:54:14;;;;;;;4.90;2.50;;;;;16.60;97464.00;;;;16608418;28;20215;-47
2022/09/26 19:02:21;;;;;;;5.17;3.43;;;;;16.60;97453.00;;;;16611753;28;20234;-47
2022/09/26 19:10:24;;;;;;;5.70;2.70;;;;;16.40;97452.00;;;;16610680;28;20311;-48
2022/09/26 19:18:28;;;;;;;2.50;2.20;;;;;16.40;97443.00;;;;16609626;28;20277;-48
2022/09/26 19:26:35;;;;;;;2.60;2.40;;;;;16.30;97442.00;;;;16607648;28;20601;-48
2022/09/26 19:34:39;;;;;;;3.60;3.17;;;;;16.10;97431.00;;;;16623067;28;20234;-48
2022/09/26 19:42:42;;;;;;;3.80;2.90;;;;;16.40;97430.00;;;;16613009;28;20195;-48
2022/09/26 19:50:47;;;;;;;3.27;2.90;;;;;16.30;97434.00;;;;16605756;28;20215;-48
2022/09/26 19:58:51;;;;;;;2.80;2.53;;;;;16.50;97431.00;;;;16627047;28;20256;-47
2022/09/26 20:06:57;;;;;;;6.13;2.47;;;;;16.60;97427.00;;;;16623273;28;20720;-48
2022/09/26 20:15:00;;;;;;;1.97;1.80;;;;;16.60;97413.00;;;;16619938;28;20718;-48
2022/09/26 20:23:04;;;;;;;2.70;1.70;;;;;16.50;97396.00;;;;16602598;28;20194;-48
2022/09/26 20:31:10;;;;;;;3.10;1.40;;;;;16.80;97387.00;;;;16602083;28;20246;-48
2022/09/26 20:39:15;;;;;;;1.83;1.33;;;;;16.90;97392.00;;;;16601622;28;20280;-49
2022/09/26 20:47:19;;;;;;;1.90;1.80;;;;;16.40;97384.00;;;;16609770;28;20215;-49
2022/09/26 20:55:23;;;;;;;2.30;1.60;;;;;16.00;97391.00;;;;16607278;28;20224;-48
2022/09/26 21:03:27;;;;;;;5.50;1.80;;;;;16.00;97378.00;;;;16602269;28;20206;-49
2022/09/26 21:11:30;;;;;;;1.53;1.37;;;;;15.70;97374.00;;;;16607726;28;20397;-49
2022/09/26 21:19:33;;;;;;;1.73;1.50;;;;;15.60;97357.00;;;;16614600;28;20238;-49
2022/09/26 21:27:51;;;;;;;1.20;1.10;;;;;15.80;97347.00;;;;16617650;28;21082;-48
2022/09/26 21:35:53;;;;;;;2.40;1.73;;;;;15.70;97342.00;;;;16615073;28;20230;-49
2022/09/26 21:44:00;;;;;;;2.00;1.60;;;;;15.50;97347.00;;;;16619840;28;20198;-48
2022/09/26 21:52:06;;;;;;;5.10;3.57;;;;;15.00;97355.00;;;;16616898;28;20235;-48
2022/09/26 22:00:12;;;;;;;9.17;7.80;;;;;14.60;97348.00;;;;16612953;28;20226;-48
2022/09/26 22:08:17;;;;;;;12.50;10.43;;;;;14.60;97346.00;;;;16614045;28;20222;-48
2022/09/26 22:16:21;;;;;;;6.60;5.93;;;;;14.20;97348.00;;;;16627481;28;20221;-48
2022/09/26 22:24:24;;;;;;;4.23;3.83;;;;;14.30;97331.00;;;;16638120;28;20206;-48
2022/09/26 22:32:27;;;;;;;5.20;3.30;;;;;14.30;97315.00;;;;16624405;28;20227;-48
2022/09/26 22:40:30;;;;;;;2.20;2.00;;;;;14.60;97298.00;;;;16624472;28;20222;-48
2022/09/26 22:48:35;;;;;;;1.80;1.60;;;;;14.20;97289.00;;;;16632432;28;20226;-47
2022/09/26 22:56:37;;;;;;;1.13;1.10;;;;;14.20;97284.00;;;;16640082;28;20740;-48
2022/09/26 23:04:47;;;;;;;5.47;1.40;;;;;14.20;97274.00;;;;16625107;28;20341;-48
2022/09/26 23:12:50;;;;;;;1.37;1.27;;;;;14.20;97258.00;;;;16628410;28;20219;-48
2022/09/26 23:20:54;;;;;;;1.20;1.10;;;;;14.10;97227.00;;;;16625010;28;20575;-48
2022/09/26 23:28:59;;;;;;;3.03;1.47;;;;;14.10;97206.00;;;;16640754;28;20224;-47
2022/09/26 23:37:03;;;;;;;0.90;0.90;;;;;14.10;97195.00;;;;16623839;28;20220;-48
2022/09/26 23:45:06;;;;;;;2.40;1.90;;;;;14.10;97181.00;;;;16624094;28;20856;-48
2022/09/26 23:53:10;;;;;;;3.03;1.20;;;;;14.10;97169.00;;;;16632857;28;20315;-48
